createdAt,value
2019-05-15T00:01:32.154Z,102714.23
2019-05-15T00:04:01.691Z,102713.88
2019-05-15T00:06:32.880Z,102711.39
2019-05-15T00:09:02.568Z,102714.95
2019-05-15T00:11:32.196Z,102716.64
2019-05-15T00:14:01.833Z,102715.75
2019-05-15T00:16:31.492Z,102715.28
2019-05-15T00:19:01.200Z,102717.80
2019-05-15T00:21:30.820Z,102714.30
2019-05-15T00:24:00.480Z,102721.20
2019-05-15T00:26:30.720Z,102714.05
2019-05-15T00:29:11.539Z,102708.59
2019-05-15T00:31:32.157Z,102707.80
2019-05-15T00:34:01.887Z,102704.00
2019-05-15T00:36:31.676Z,102706.91
2019-05-15T00:39:01.608Z,102702.73
2019-05-15T00:41:31.471Z,102696.52
2019-05-15T00:44:01.148Z,102694.41
2019-05-15T00:46:30.802Z,102692.27
2019-05-15T00:49:01.187Z,102693.93
2019-05-15T00:51:30.811Z,102690.16
2019-05-15T00:54:01.499Z,102691.02
2019-05-15T00:56:31.123Z,102691.44
2019-05-15T00:59:00.758Z,102701.13
2019-05-15T01:01:30.409Z,102695.08
2019-05-15T01:04:00.072Z,102699.27
2019-05-15T01:06:30.041Z,102689.99
2019-05-15T01:08:59.725Z,102688.30
2019-05-15T01:11:29.347Z,102689.15
2019-05-15T01:13:58.958Z,102690.06
2019-05-15T01:16:28.644Z,102684.54
2019-05-15T01:18:58.687Z,102684.64
2019-05-15T01:21:28.465Z,102684.19
2019-05-15T01:23:58.936Z,102682.88
2019-05-15T01:26:28.703Z,102681.56
2019-05-15T01:28:58.593Z,102673.09
2019-05-15T01:31:28.650Z,102667.22
2019-05-15T01:33:58.506Z,102668.10
2019-05-15T01:36:28.749Z,102675.25
2019-05-15T01:38:58.726Z,102667.94
2019-05-15T01:41:28.619Z,102666.61
2019-05-15T01:43:59.067Z,102662.84
2019-05-15T01:46:28.747Z,102661.16
2019-05-15T01:48:58.690Z,102664.48
2019-05-15T01:51:28.733Z,102655.09
2019-05-15T01:53:58.566Z,102661.83
2019-05-15T01:56:29.285Z,102651.34
2019-05-15T01:58:59.535Z,102652.67
2019-05-15T02:01:29.492Z,102644.74
2019-05-15T02:03:59.111Z,102646.86
2019-05-15T02:06:28.736Z,102644.79
2019-05-15T02:08:59.311Z,102647.75
2019-05-15T02:11:29.043Z,102638.74
2019-05-15T02:13:58.760Z,102630.19
2019-05-15T02:16:28.818Z,102625.95
2019-05-15T02:18:58.532Z,102619.16
2019-05-15T02:21:28.803Z,102613.28
2019-05-15T02:23:59.617Z,102611.18
2019-05-15T02:26:29.236Z,102604.80
2019-05-15T02:28:58.855Z,102605.65
2019-05-15T02:31:30.221Z,102608.98
2019-05-15T02:34:00.227Z,102602.20
2019-05-15T02:36:29.828Z,102599.23
2019-05-15T02:39:00.251Z,102598.75
2019-05-15T02:41:30.213Z,102594.94
2019-05-15T02:43:59.907Z,102595.78
2019-05-15T02:46:30.215Z,102591.53
2019-05-15T02:49:00.135Z,102593.66
2019-05-15T02:51:30.179Z,102588.50
2019-05-15T02:53:59.965Z,102593.16
2019-05-15T02:56:30.158Z,102590.61
2019-05-15T02:59:00.171Z,102598.60
2019-05-15T03:01:29.916Z,102582.48
2019-05-15T03:03:59.758Z,102589.70
2019-05-15T03:06:30.071Z,102587.16
2019-05-15T03:08:59.853Z,102587.99
2019-05-15T03:11:29.775Z,102593.88
2019-05-15T03:13:59.506Z,102595.14
2019-05-15T03:16:30.474Z,102588.71
2019-05-15T03:19:00.291Z,102590.80
2019-05-15T03:21:31.004Z,102581.89
2019-05-15T03:24:00.760Z,102590.36
2019-05-15T03:26:30.385Z,102592.06
2019-05-15T03:29:00.001Z,102592.47
2019-05-15T03:31:49.380Z,102597.02
2019-05-15T03:34:03.315Z,102603.28
2019-05-15T03:36:32.817Z,102604.52
2019-05-15T03:39:02.548Z,102606.56
2019-05-15T03:41:32.256Z,102604.36
2019-05-15T03:44:01.859Z,102597.56
2019-05-15T03:46:31.523Z,102594.19
2019-05-15T03:49:01.144Z,102594.98
2019-05-15T03:51:30.775Z,102597.50
2019-05-15T03:54:00.644Z,102596.30
2019-05-15T03:56:30.342Z,102602.19
2019-05-15T03:59:00.018Z,102589.81
2019-05-15T04:01:38.461Z,102589.32
2019-05-15T04:04:01.887Z,102584.22
2019-05-15T04:06:31.576Z,102582.92
2019-05-15T04:09:01.308Z,102579.48
2019-05-15T04:11:30.925Z,102581.59
2019-05-15T04:14:00.546Z,102577.36
2019-05-15T04:16:30.412Z,102577.00
2019-05-15T04:19:00.030Z,102576.93
2019-05-15T04:21:30.481Z,102574.80
2019-05-15T04:24:00.626Z,102574.88
2019-05-15T04:26:33.956Z,102571.12
2019-05-15T04:29:03.578Z,102575.37
2019-05-15T04:31:50.225Z,102581.31
2019-05-15T04:34:05.036Z,102579.27
2019-05-15T04:36:35.021Z,102579.67
2019-05-15T04:39:09.868Z,102580.09
2019-05-15T04:41:39.552Z,102572.75
2019-05-15T04:44:10.274Z,102575.00
2019-05-15T04:46:40.354Z,102578.42
2019-05-15T04:49:11.771Z,102583.70
2019-05-15T04:51:41.568Z,102577.34
2019-05-15T04:54:11.791Z,102573.53
2019-05-15T04:56:42.176Z,102572.67
2019-05-15T04:59:11.800Z,102568.44
2019-05-15T05:01:41.545Z,102564.31
2019-05-15T05:04:11.660Z,102564.35
2019-05-15T05:06:41.977Z,102569.44
2019-05-15T05:09:12.582Z,102563.08
2019-05-15T05:11:42.265Z,102568.23
2019-05-15T05:14:11.884Z,102571.70
2019-05-15T05:16:42.610Z,102565.80
2019-05-15T05:19:12.236Z,102569.57
2019-05-15T05:21:42.379Z,102569.55
2019-05-15T05:24:12.311Z,102570.00
2019-05-15T05:26:42.525Z,102578.13
2019-05-15T05:29:13.121Z,102580.38
2019-05-15T05:31:42.627Z,102584.62
2019-05-15T05:34:12.823Z,102584.60
2019-05-15T05:36:42.506Z,102585.03
2019-05-15T05:39:39.667Z,102581.66
2019-05-15T05:42:09.303Z,102584.68
2019-05-15T05:44:42.543Z,102586.02
2019-05-15T05:47:10.595Z,102588.92
2019-05-15T05:49:40.219Z,102593.65
2019-05-15T05:52:09.851Z,102591.84
2019-05-15T05:54:39.594Z,102593.52
2019-05-15T05:57:09.244Z,102596.01
2019-05-15T05:59:38.871Z,102595.56
2019-05-15T06:02:08.896Z,102598.91
2019-05-15T06:04:38.613Z,102590.48
2019-05-15T06:07:14.353Z,102595.22
2019-05-15T06:09:44.308Z,102590.92
2019-05-15T06:12:14.022Z,102593.89
2019-05-15T06:14:45.783Z,102587.15
2019-05-15T06:17:15.463Z,102588.80
2019-05-15T06:19:45.061Z,102587.50
2019-05-15T06:22:15.056Z,102583.57
2019-05-15T06:24:44.838Z,102581.39
2019-05-15T06:27:14.479Z,102584.35
2019-05-15T06:29:44.466Z,102582.16
2019-05-15T06:32:14.161Z,102576.57
2019-05-15T06:34:44.320Z,102580.87
2019-05-15T06:37:14.045Z,102575.73
2019-05-15T06:39:43.731Z,102577.49
2019-05-15T06:42:13.341Z,102587.31
2019-05-15T06:44:42.980Z,102583.73
2019-05-15T06:47:12.805Z,102593.05
2019-05-15T06:49:44.170Z,102585.33
2019-05-15T06:52:13.968Z,102582.79
2019-05-15T06:54:45.765Z,102585.77
2019-05-15T06:57:18.220Z,102593.36
2019-05-15T06:59:49.120Z,102588.72
2019-05-15T07:02:20.400Z,102590.14
2019-05-15T07:04:54.086Z,102589.36
2019-05-15T07:07:24.152Z,102592.26
2019-05-15T07:09:54.096Z,102593.41
2019-05-15T07:12:23.806Z,102591.16
2019-05-15T07:14:54.127Z,102587.59
2019-05-15T07:17:24.935Z,102584.98
2019-05-15T07:19:54.619Z,102582.50
2019-05-15T07:22:28.918Z,102584.12
2019-05-15T07:24:59.722Z,102578.06
2019-05-15T07:27:33.419Z,102578.98
2019-05-15T07:30:07.659Z,102574.73
2019-05-15T07:32:39.609Z,102584.90
2019-05-15T07:35:13.916Z,102584.42
2019-05-15T07:37:43.667Z,102575.00
2019-05-15T07:40:15.668Z,102579.61
2019-05-15T07:42:49.105Z,102581.23
2019-05-15T07:45:22.895Z,102570.61
2019-05-15T07:48:00.832Z,102572.73
2019-05-15T07:50:34.537Z,102571.44
2019-05-15T07:53:08.940Z,102569.97
2019-05-15T07:55:39.496Z,102566.58
2019-05-15T07:58:14.465Z,102571.66
2019-05-15T08:00:44.184Z,102567.04
2019-05-15T08:03:18.219Z,102564.92
2019-05-15T08:05:56.118Z,102565.85
2019-05-15T08:08:22.486Z,102567.54
2019-05-15T08:10:52.195Z,102564.92
2019-05-15T08:13:23.526Z,102552.56
2019-05-15T08:15:58.046Z,102553.33
2019-05-15T08:18:30.924Z,102549.41
2019-05-15T08:21:04.283Z,102554.92
2019-05-15T08:23:34.413Z,102559.49
2019-05-15T08:26:08.748Z,102553.53
2019-05-15T08:28:38.466Z,102557.36
2019-05-15T08:31:10.289Z,102560.75
2019-05-15T08:33:40.287Z,102561.53
2019-05-15T08:36:12.174Z,102561.97
2019-05-15T08:38:44.974Z,102564.14
2019-05-15T08:41:18.337Z,102559.39
2019-05-15T08:43:48.895Z,102561.87
2019-05-15T08:46:18.869Z,102563.05
2019-05-15T08:48:49.743Z,102564.75
2019-05-15T08:51:21.975Z,102561.85
2019-05-15T08:53:52.786Z,102560.52
2019-05-15T08:56:22.415Z,102556.67
2019-05-15T08:58:53.383Z,102551.02
2019-05-15T09:01:23.119Z,102551.75
2019-05-15T09:03:58.208Z,102548.29
2019-05-15T09:06:32.043Z,102547.78
2019-05-15T09:09:02.330Z,102550.38
2019-05-15T09:11:32.052Z,102550.22
2019-05-15T09:14:02.357Z,102551.78
2019-05-15T09:16:34.688Z,102547.11
2019-05-15T09:19:10.370Z,102546.24
2019-05-15T09:21:48.820Z,102550.06
2019-05-15T09:24:19.912Z,102551.06
2019-05-15T09:26:51.413Z,102552.78
2019-05-15T09:29:22.612Z,102546.42
2019-05-15T09:31:53.577Z,102542.52
2019-05-15T09:34:23.915Z,102545.73
2019-05-15T09:36:53.515Z,102537.84
2019-05-15T09:39:25.156Z,102542.29
2019-05-15T09:41:54.790Z,102536.96
2019-05-15T09:44:24.702Z,102537.80
2019-05-15T09:46:58.451Z,102533.98
2019-05-15T09:49:31.765Z,102531.86
2019-05-15T09:52:03.016Z,102529.28
2019-05-15T09:54:34.261Z,102532.67
2019-05-15T09:57:10.799Z,102530.58
2019-05-15T09:59:39.769Z,102525.54
2019-05-15T10:02:13.186Z,102524.20
2019-05-15T10:04:44.214Z,102526.30
2019-05-15T10:07:13.930Z,102515.66
2019-05-15T10:09:43.689Z,102521.45
2019-05-15T10:12:15.133Z,102520.06
2019-05-15T10:14:49.214Z,102511.57
2019-05-15T10:17:20.900Z,102517.43
2019-05-15T10:19:50.670Z,102508.06
2019-05-15T10:22:21.396Z,102508.32
2019-05-15T10:24:53.095Z,102507.71
2019-05-15T10:27:22.897Z,102500.28
2019-05-15T10:29:55.522Z,102500.19
2019-05-15T10:32:25.219Z,102495.58
2019-05-15T10:34:58.579Z,102489.28
2019-05-15T10:37:30.619Z,102493.12
2019-05-15T10:40:01.008Z,102484.52
2019-05-15T10:42:31.072Z,102498.05
2019-05-15T10:45:02.397Z,102488.39
2019-05-15T10:47:32.084Z,102491.29
2019-05-15T10:50:01.704Z,102489.82
2019-05-15T10:52:32.111Z,102483.03
2019-05-15T10:55:01.807Z,102480.95
2019-05-15T10:57:33.115Z,102480.48
2019-05-15T11:00:04.845Z,102478.60
2019-05-15T11:02:34.710Z,102472.77
2019-05-15T11:05:10.813Z,102478.52
2019-05-15T11:07:40.743Z,102480.57
2019-05-15T11:10:11.390Z,102472.56
2019-05-15T11:12:41.326Z,102466.95
2019-05-15T11:15:11.975Z,102470.41
2019-05-15T11:17:41.586Z,102473.27
2019-05-15T11:20:12.055Z,102468.97
2019-05-15T11:22:42.907Z,102465.95
2019-05-15T11:25:13.689Z,102478.28
2019-05-15T11:27:48.380Z,102469.48
2019-05-15T11:30:19.373Z,102469.08
2019-05-15T11:32:49.067Z,102472.47
2019-05-15T11:35:19.530Z,102467.05
2019-05-15T11:37:56.428Z,102468.60
2019-05-15T11:40:21.678Z,102458.58
2019-05-15T11:42:51.367Z,102454.38
2019-05-15T11:45:21.262Z,102453.47
2019-05-15T11:47:50.970Z,102460.42
2019-05-15T11:50:21.086Z,102451.64
2019-05-15T11:52:53.033Z,102454.87
2019-05-15T11:55:22.886Z,102456.25
2019-05-15T11:57:55.751Z,102460.98
2019-05-15T12:00:26.981Z,102459.71
2019-05-15T12:02:58.394Z,102450.91
2019-05-15T12:05:28.811Z,102449.83
2019-05-15T12:08:00.231Z,102455.38
2019-05-15T12:10:31.195Z,102460.16
2019-05-15T12:13:02.626Z,102458.08
2019-05-15T12:15:35.316Z,102458.88
2019-05-15T12:18:05.211Z,102452.76
2019-05-15T12:20:34.891Z,102456.96
2019-05-15T12:23:09.047Z,102462.14
2019-05-15T12:25:39.335Z,102458.58
2019-05-15T12:28:10.175Z,102456.65
2019-05-15T12:30:40.568Z,102466.38
2019-05-15T12:33:12.867Z,102471.22
2019-05-15T12:35:43.748Z,102460.45
2019-05-15T12:38:14.208Z,102458.31
2019-05-15T13:01:12.719Z,102431.62
2019-05-15T13:03:34.889Z,102438.83
2019-05-15T13:06:04.501Z,102437.05
2019-05-15T13:08:34.188Z,102441.28
2019-05-15T13:11:10.205Z,102441.16
2019-05-15T13:13:39.484Z,102440.98
2019-05-15T13:16:10.644Z,102435.66
2019-05-15T13:18:41.596Z,102437.29
2019-05-15T13:21:11.223Z,102432.74
2019-05-15T13:23:40.903Z,102429.37
2019-05-15T13:26:23.081Z,102432.92
2019-05-15T13:28:44.026Z,102421.72
2019-05-15T13:31:13.751Z,102416.04
2019-05-15T13:33:45.162Z,102418.80
2019-05-15T13:36:16.367Z,102411.02
2019-05-15T13:38:48.137Z,102421.90
2019-05-15T13:41:19.054Z,102426.25
2019-05-15T13:43:49.438Z,102420.86
2019-05-15T13:46:20.618Z,102422.40
2019-05-15T13:48:50.581Z,102416.77
2019-05-15T13:51:20.276Z,102423.60
2019-05-15T13:53:50.022Z,102422.73
2019-05-15T13:56:19.932Z,102410.09
2019-05-15T13:58:49.751Z,102417.69
2019-05-15T14:01:19.800Z,102425.41
2019-05-15T14:03:49.474Z,102426.29
2019-05-15T14:06:21.067Z,102424.22
2019-05-15T14:08:50.779Z,102422.83
2019-05-15T14:11:21.900Z,102416.27
2019-05-15T14:13:51.873Z,102411.97
2019-05-15T14:16:21.498Z,102402.75
2019-05-15T14:18:51.332Z,102400.23
2019-05-15T14:21:20.999Z,102396.78
2019-05-15T14:23:50.709Z,102391.06
2019-05-15T14:26:23.977Z,102386.20
2019-05-15T14:28:52.135Z,102382.85
2019-05-15T14:31:21.753Z,102388.20
2019-05-15T14:33:51.436Z,102382.73
2019-05-15T14:36:21.200Z,102383.31
2019-05-15T14:38:52.341Z,102380.88
2019-05-15T14:41:22.373Z,102379.67
2019-05-15T14:43:52.105Z,102376.97
2019-05-15T14:46:21.810Z,102379.95
2019-05-15T14:48:51.611Z,102368.84
2019-05-15T14:51:23.141Z,102366.45
2019-05-15T14:53:52.899Z,102364.13
2019-05-15T14:56:22.834Z,102367.66
2019-05-15T14:58:52.527Z,102362.11
2019-05-15T15:01:23.293Z,102364.51
2019-05-15T15:03:53.046Z,102362.71
2019-05-15T15:06:23.651Z,102363.23
2019-05-15T15:08:53.722Z,102359.55
2019-05-15T15:11:25.098Z,102352.75
2019-05-15T15:13:55.087Z,102351.47
2019-05-15T15:16:24.714Z,102354.48
2019-05-15T15:18:55.376Z,102348.75
2019-05-15T15:21:25.072Z,102348.80
2019-05-15T15:23:58.757Z,102346.56
2019-05-15T15:26:32.623Z,102345.33
2019-05-15T15:29:08.468Z,102351.20
2019-05-15T15:31:50.860Z,102346.31
2019-05-15T15:34:23.407Z,102341.02
2019-05-15T15:37:00.852Z,102335.21
2019-05-15T15:39:33.221Z,102329.44
2019-05-15T15:42:11.637Z,102333.41
2019-05-15T15:44:48.826Z,102326.41
2019-05-15T15:47:28.179Z,102319.69
2019-05-15T15:50:09.539Z,102320.23
2019-05-15T15:52:49.047Z,102311.20
2019-05-15T15:55:24.248Z,102307.73
2019-05-15T15:58:00.685Z,102314.29
2019-05-15T16:00:35.115Z,102308.11
2019-05-15T16:03:09.144Z,102299.47
2019-05-15T16:05:44.194Z,102304.91
2019-05-15T16:08:51.560Z,102302.25
2019-05-15T16:11:15.747Z,102303.63
2019-05-15T16:13:58.565Z,102297.72
2019-05-15T16:16:32.203Z,102294.27
2019-05-15T16:19:05.413Z,102290.91
2019-05-15T16:21:39.819Z,102292.89
2019-05-15T16:24:17.808Z,102290.07
2019-05-15T16:26:52.378Z,102285.91
2019-05-15T16:29:28.219Z,102286.78
2019-05-15T16:32:08.735Z,102279.73
2019-05-15T16:34:53.099Z,102277.11
2019-05-15T16:37:34.979Z,102279.43
2019-05-15T16:40:18.341Z,102272.64
2019-05-15T16:42:52.425Z,102272.00
2019-05-15T16:45:30.095Z,102276.80
2019-05-15T16:48:02.964Z,102269.65
2019-05-15T16:50:38.356Z,102267.20
2019-05-15T16:53:18.215Z,102268.41
2019-05-15T16:56:00.005Z,102268.07
2019-05-15T16:58:39.448Z,102260.75
2019-05-15T17:01:10.647Z,102266.47
2019-05-15T17:03:40.371Z,102267.23
2019-05-15T17:06:10.079Z,102267.23
2019-05-15T17:08:39.925Z,102268.95
2019-05-15T17:11:09.559Z,102265.72
2019-05-15T17:13:42.902Z,102270.86
2019-05-15T17:16:12.603Z,102272.48
2019-05-15T17:18:42.302Z,102279.66
2019-05-15T17:21:12.234Z,102283.73
2019-05-15T17:23:42.258Z,102284.37
2019-05-15T17:26:11.950Z,102282.12
2019-05-15T17:28:41.657Z,102278.63
2019-05-15T17:31:11.333Z,102272.61
2019-05-15T17:33:43.132Z,102277.55
2019-05-15T17:36:12.782Z,102277.37
2019-05-15T17:38:42.479Z,102270.02
2019-05-15T17:41:12.155Z,102266.72
2019-05-15T17:43:41.779Z,102268.67
2019-05-15T17:46:11.450Z,102273.77
2019-05-15T17:48:41.102Z,102273.98
2019-05-15T17:51:10.734Z,102275.06
2019-05-15T17:53:40.580Z,102268.38
2019-05-15T17:56:10.216Z,102270.39
2019-05-15T17:58:39.839Z,102270.66
2019-05-15T18:01:09.545Z,102264.38
2019-05-15T18:03:39.459Z,102258.94
2019-05-15T18:06:09.229Z,102269.15
2019-05-15T18:08:39.257Z,102270.73
2019-05-15T18:11:08.948Z,102264.82
2019-05-15T18:13:38.578Z,102269.28
2019-05-15T18:16:13.269Z,102268.53
2019-05-15T18:18:39.763Z,102262.62
2019-05-15T18:21:10.332Z,102260.98
2019-05-15T18:23:40.205Z,102258.33
2019-05-15T18:26:09.841Z,102252.89
2019-05-15T18:28:39.468Z,102257.69
2019-05-15T18:31:09.251Z,102257.78
2019-05-15T18:33:52.808Z,102258.75
2019-05-15T18:36:11.016Z,102254.19
2019-05-15T18:38:41.109Z,102252.23
2019-05-15T18:41:11.213Z,102254.50
2019-05-15T18:43:40.850Z,102256.31
2019-05-15T18:46:10.586Z,102247.54
2019-05-15T18:48:40.215Z,102250.13
2019-05-15T18:51:09.999Z,102251.61
2019-05-15T18:53:40.065Z,102246.14
2019-05-15T18:56:09.770Z,102244.49
2019-05-15T18:58:39.456Z,102241.59
2019-05-15T19:01:09.560Z,102242.50
2019-05-15T19:03:39.570Z,102238.80
2019-05-15T19:06:09.178Z,102242.66
2019-05-15T19:08:38.930Z,102247.28
2019-05-15T19:11:08.639Z,102249.59
2019-05-15T19:13:39.041Z,102254.56
2019-05-15T19:16:09.463Z,102248.00
2019-05-15T19:18:39.153Z,102253.41
2019-05-15T19:21:08.851Z,102253.76
2019-05-15T19:23:40.340Z,102259.95
2019-05-15T19:26:11.815Z,102263.30
2019-05-15T19:28:41.694Z,102262.53
2019-05-15T19:31:23.267Z,102268.56
2019-05-15T19:33:42.719Z,102260.41
2019-05-15T19:36:13.268Z,102253.48
2019-05-15T19:38:42.940Z,102262.78
2019-05-15T19:41:12.794Z,102261.16
2019-05-15T19:43:42.991Z,102255.09
2019-05-15T19:46:14.509Z,102262.19
2019-05-15T19:48:44.171Z,102263.92
2019-05-15T19:51:18.151Z,102265.91
2019-05-15T19:53:47.881Z,102262.09
2019-05-15T19:56:18.825Z,102262.94
2019-05-15T19:58:48.905Z,102257.45
2019-05-15T20:01:18.954Z,102256.68
2019-05-15T20:03:52.892Z,102246.14
2019-05-15T20:06:20.116Z,102238.06
2019-05-15T20:08:49.788Z,102232.55
2019-05-15T20:11:19.419Z,102232.55
2019-05-15T20:13:49.898Z,102226.09
2019-05-15T20:16:21.455Z,102227.89
2019-05-15T20:18:51.182Z,102226.80
2019-05-15T20:21:20.903Z,102233.20
2019-05-15T20:23:50.624Z,102236.94
2019-05-15T20:26:20.707Z,102233.09
2019-05-15T20:28:51.967Z,102227.14
2019-05-15T20:31:21.797Z,102230.28
2019-05-15T20:34:02.583Z,102227.89
2019-05-15T20:36:23.121Z,102229.16
2019-05-15T20:38:52.799Z,102226.23
2019-05-15T20:41:25.533Z,102223.20
2019-05-15T20:43:55.163Z,102214.09
2019-05-15T20:46:24.875Z,102217.73
2019-05-15T20:48:54.493Z,102214.71
2019-05-15T20:51:24.106Z,102221.33
2019-05-15T20:53:53.998Z,102217.03
2019-05-15T20:56:23.910Z,102217.06
2019-05-15T20:58:53.553Z,102213.15
2019-05-15T21:01:23.214Z,102211.97
2019-05-15T21:03:53.540Z,102204.32
2019-05-15T21:06:23.162Z,102208.11
2019-05-15T21:08:52.841Z,102204.50
2019-05-15T21:11:22.465Z,102203.97
2019-05-15T21:13:52.173Z,102196.75
2019-05-15T21:16:22.238Z,102194.30
2019-05-15T21:18:51.842Z,102188.89
2019-05-15T21:21:21.468Z,102189.77
2019-05-15T21:23:51.131Z,102190.20
2019-05-15T21:26:20.862Z,102185.60
2019-05-15T21:28:51.225Z,102181.13
2019-05-15T21:31:22.081Z,102185.05
2019-05-15T21:33:51.999Z,102184.15
2019-05-15T21:36:21.813Z,102173.48
2019-05-15T21:38:53.197Z,102166.37
2019-05-15T21:41:24.675Z,102169.05
2019-05-15T21:43:59.293Z,102171.47
2019-05-15T21:46:28.504Z,102167.23
2019-05-15T21:49:00.891Z,102164.69
2019-05-15T21:51:30.295Z,102171.66
2019-05-15T21:54:01.280Z,102173.80
2019-05-15T21:56:31.368Z,102166.19
2019-05-15T21:59:01.310Z,102166.93
2019-05-15T22:01:32.864Z,102162.14
2019-05-15T22:04:02.891Z,102161.73
2019-05-15T22:06:33.075Z,102153.34
2019-05-15T22:09:03.719Z,102152.81
2019-05-15T22:11:34.283Z,102154.39
2019-05-15T22:14:05.059Z,102153.09
2019-05-15T22:16:35.019Z,102145.68
2019-05-15T22:19:04.783Z,102150.21
2019-05-15T22:21:34.743Z,102143.67
2019-05-15T22:24:04.866Z,102133.97
2019-05-15T22:26:35.163Z,102131.42
2019-05-15T22:29:04.728Z,102132.39
2019-05-15T22:31:34.784Z,102128.17
2019-05-15T22:34:04.412Z,102123.03
2019-05-15T22:36:34.305Z,102129.75
2019-05-15T22:39:05.633Z,102127.50
2019-05-15T22:41:35.257Z,102115.92
2019-05-15T22:44:05.015Z,102123.84
2019-05-15T22:46:38.170Z,102115.65
2019-05-15T22:49:07.794Z,102117.36
2019-05-15T22:51:38.292Z,102112.59
2019-05-15T22:54:08.649Z,102106.17
2019-05-15T22:56:38.363Z,102107.82
2019-05-15T22:59:08.565Z,102107.35
2019-05-15T23:01:39.826Z,102114.53
2019-05-15T23:04:09.440Z,102110.77
2019-05-15T23:06:39.145Z,102103.02
2019-05-15T23:09:09.385Z,102094.53
2019-05-15T23:11:39.515Z,102089.86
2019-05-15T23:14:09.358Z,102083.45
2019-05-15T23:16:39.597Z,102085.56
2019-05-15T23:19:09.227Z,102078.56
2019-05-15T23:21:40.306Z,102083.16
2019-05-15T23:24:10.232Z,102077.22
2019-05-15T23:26:39.843Z,102071.75
2019-05-15T23:29:09.845Z,102057.02
2019-05-15T23:31:39.852Z,102059.30
2019-05-15T23:34:09.493Z,102054.33
2019-05-15T23:36:39.095Z,102057.92
2019-05-15T23:39:08.817Z,102053.30
2019-05-15T23:41:38.442Z,102046.59
2019-05-15T23:44:08.349Z,102054.38
2019-05-15T23:46:38.427Z,102043.07
2019-05-15T23:49:09.630Z,102035.49
2019-05-15T23:51:39.919Z,102036.63
2019-05-15T23:54:10.172Z,102037.44
2019-05-15T23:56:40.035Z,102030.33
2019-05-15T23:59:09.841Z,102035.36
